Terminal Aerodrome Forecast
Issued by NWS

Home | Current Version | Previous Version | Text Only | Print | Product List | Glossary On
Versions: 1 2 3 4 5 6 7 8 9 10 11 12 13 14 15 16 17 18 19 20 21 22 23 24 25 26 27 28 29 30 31 32 33 34 35 36
000
FTAK31 PANC 282024 AAA
TAFAVD
TAF AMD
PAVD 282024Z 2820/2918 00000KT 6SM -SN FEW003 BKN045
      TEMPO 2820/2822 3SM -SN BR SCT003 BKN025
     FM282200 00000KT 2SM -SN BR SCT003 BKN025
     FM290300 VRB02KT 1/2SM SN FZFG SCT001 BKN007
     FM290900 VRB03KT 2SM -SN BR SCT001 OVC015
      AMD LTD TO CLD VIS AND WIND=

USA.gov is the U.S. government's official web portal to all federal, state and local government web resources and services.